Historie AUP a zpráv METAR Praha-Ruzyně z 12:00 UTC

Datum: 14-06-2018 / Vyber datum:
LKPR 141200Z 33005KT 290V030 9999 SCT030 16/08 Q1017 NOSIG
Prostor Spodní hranice Horní hranice Od Do
TRA6 GND F095 12:00 19:00
TSA1 GND F165 19:00 23:00
TSA2A GND F125 06:00 15:10
TSA2B GND F205 07:00 23:10
TSA3A GND F285 07:00 23:30
TSA4 GND 4000FT/AMSL 06:00 22:00
TSA5B GND F135 07:00 16:00